sensor_id;sensor_type;location;lat;lon;timestamp;P1;durP1;ratioP1;P2;durP2;ratioP2
966;SDS011;56108;48.730;9.304;2022-10-16T00:00:45;3.50;;;3.20;;
966;SDS011;56108;48.730;9.304;2022-10-16T00:02:53;4.00;;;3.70;;
966;SDS011;56108;48.730;9.304;2022-10-16T00:05:02;5.63;;;3.05;;
966;SDS011;56108;48.730;9.304;2022-10-16T00:07:10;3.63;;;3.25;;
966;SDS011;56108;48.730;9.304;2022-10-16T00:09:18;3.83;;;3.53;;
966;SDS011;56108;48.730;9.304;2022-10-16T00:11:30;3.88;;;3.45;;
966;SDS011;56108;48.730;9.304;2022-10-16T00:13:41;3.97;;;3.78;;
966;SDS011;56108;48.730;9.304;2022-10-16T00:15:50;5.95;;;3.42;;
966;SDS011;56108;48.730;9.304;2022-10-16T00:18:02;3.95;;;3.60;;
966;SDS011;56108;48.730;9.304;2022-10-16T00:20:11;5.03;;;3.72;;
966;SDS011;56108;48.730;9.304;2022-10-16T00:22:20;4.57;;;3.28;;
966;SDS011;56108;48.730;9.304;2022-10-16T00:24:29;4.10;;;3.70;;
966;SDS011;56108;48.730;9.304;2022-10-16T00:26:40;3.85;;;3.55;;
966;SDS011;56108;48.730;9.304;2022-10-16T00:28:49;4.03;;;3.72;;
966;SDS011;56108;48.730;9.304;2022-10-16T00:30:58;4.63;;;4.22;;
966;SDS011;56108;48.730;9.304;2022-10-16T00:33:09;4.10;;;3.70;;
966;SDS011;56108;48.730;9.304;2022-10-16T00:35:17;3.80;;;3.50;;
966;SDS011;56108;48.730;9.304;2022-10-16T00:37:26;4.30;;;3.92;;
966;SDS011;56108;48.730;9.304;2022-10-16T00:39:34;4.40;;;4.00;;
966;SDS011;56108;48.730;9.304;2022-10-16T00:41:45;3.75;;;3.45;;
966;SDS011;56108;48.730;9.304;2022-10-16T00:43:55;6.85;;;4.20;;
966;SDS011;56108;48.730;9.304;2022-10-16T00:46:08;4.85;;;3.60;;
966;SDS011;56108;48.730;9.304;2022-10-16T00:48:22;6.95;;;3.85;;
966;SDS011;56108;48.730;9.304;2022-10-16T00:50:31;4.90;;;3.53;;
966;SDS011;56108;48.730;9.304;2022-10-16T00:52:43;4.80;;;4.30;;
966;SDS011;56108;48.730;9.304;2022-10-16T00:54:54;4.55;;;4.20;;
966;SDS011;56108;48.730;9.304;2022-10-16T00:57:07;5.13;;;4.03;;
966;SDS011;56108;48.730;9.304;2022-10-16T00:59:16;3.97;;;3.67;;
966;SDS011;56108;48.730;9.304;2022-10-16T01:01:29;3.97;;;3.67;;
966;SDS011;56108;48.730;9.304;2022-10-16T01:03:38;3.78;;;3.53;;
966;SDS011;56108;48.730;9.304;2022-10-16T01:05:48;4.53;;;3.40;;
966;SDS011;56108;48.730;9.304;2022-10-16T01:08:05;3.60;;;3.38;;
966;SDS011;56108;48.730;9.304;2022-10-16T01:10:22;6.20;;;3.55;;
966;SDS011;56108;48.730;9.304;2022-10-16T01:12:44;6.13;;;3.47;;
966;SDS011;56108;48.730;9.304;2022-10-16T01:14:58;3.97;;;3.40;;
966;SDS011;56108;48.730;9.304;2022-10-16T01:17:11;4.53;;;3.08;;
966;SDS011;56108;48.730;9.304;2022-10-16T01:19:26;4.50;;;4.10;;
966;SDS011;56108;48.730;9.304;2022-10-16T01:21:48;6.93;;;3.60;;
966;SDS011;56108;48.730;9.304;2022-10-16T01:24:02;3.95;;;3.65;;
966;SDS011;56108;48.730;9.304;2022-10-16T01:26:20;4.30;;;3.55;;
966;SDS011;56108;48.730;9.304;2022-10-16T01:28:43;3.90;;;3.60;;
966;SDS011;56108;48.730;9.304;2022-10-16T01:30:58;3.95;;;3.20;;
966;SDS011;56108;48.730;9.304;2022-10-16T01:33:10;3.75;;;3.45;;
966;SDS011;56108;48.730;9.304;2022-10-16T01:35:25;3.80;;;3.40;;
966;SDS011;56108;48.730;9.304;2022-10-16T01:37:38;5.00;;;3.72;;
966;SDS011;56108;48.730;9.304;2022-10-16T01:39:52;4.72;;;4.32;;
966;SDS011;56108;48.730;9.304;2022-10-16T01:42:05;5.55;;;4.50;;
966;SDS011;56108;48.730;9.304;2022-10-16T01:44:21;5.80;;;4.85;;
966;SDS011;56108;48.730;9.304;2022-10-16T01:46:34;4.85;;;4.05;;
966;SDS011;56108;48.730;9.304;2022-10-16T01:48:44;5.18;;;4.88;;
966;SDS011;56108;48.730;9.304;2022-10-16T01:50:55;5.05;;;4.70;;
966;SDS011;56108;48.730;9.304;2022-10-16T01:53:08;4.72;;;4.32;;
966;SDS011;56108;48.730;9.304;2022-10-16T01:55:21;5.72;;;4.53;;
966;SDS011;56108;48.730;9.304;2022-10-16T01:57:32;4.95;;;4.45;;
966;SDS011;56108;48.730;9.304;2022-10-16T01:59:53;5.05;;;4.65;;
966;SDS011;56108;48.730;9.304;2022-10-16T02:02:15;5.00;;;4.60;;
966;SDS011;56108;48.730;9.304;2022-10-16T02:04:28;5.57;;;4.35;;
966;SDS011;56108;48.730;9.304;2022-10-16T02:06:40;4.20;;;3.90;;
966;SDS011;56108;48.730;9.304;2022-10-16T02:08:49;4.55;;;4.20;;
966;SDS011;56108;48.730;9.304;2022-10-16T02:10:57;5.35;;;4.10;;
966;SDS011;56108;48.730;9.304;2022-10-16T02:13:09;4.35;;;3.92;;
966;SDS011;56108;48.730;9.304;2022-10-16T02:15:27;4.15;;;3.85;;
966;SDS011;56108;48.730;9.304;2022-10-16T02:17:36;3.90;;;3.50;;
966;SDS011;56108;48.730;9.304;2022-10-16T02:19:45;4.13;;;3.83;;
966;SDS011;56108;48.730;9.304;2022-10-16T02:21:56;7.38;;;3.83;;
966;SDS011;56108;48.730;9.304;2022-10-16T02:24:06;5.63;;;3.40;;
966;SDS011;56108;48.730;9.304;2022-10-16T02:26:22;3.95;;;3.55;;
966;SDS011;56108;48.730;9.304;2022-10-16T02:28:38;3.78;;;3.45;;
966;SDS011;56108;48.730;9.304;2022-10-16T02:30:53;3.83;;;3.50;;
966;SDS011;56108;48.730;9.304;2022-10-16T02:33:07;3.75;;;3.45;;
966;SDS011;56108;48.730;9.304;2022-10-16T02:35:18;3.38;;;2.75;;
966;SDS011;56108;48.730;9.304;2022-10-16T02:37:28;4.07;;;3.70;;
966;SDS011;56108;48.730;9.304;2022-10-16T02:39:38;5.30;;;3.10;;
966;SDS011;56108;48.730;9.304;2022-10-16T02:41:48;6.13;;;3.88;;
966;SDS011;56108;48.730;9.304;2022-10-16T02:43:57;3.40;;;3.20;;
966;SDS011;56108;48.730;9.304;2022-10-16T02:46:08;4.15;;;3.20;;
966;SDS011;56108;48.730;9.304;2022-10-16T02:48:16;3.45;;;3.15;;
966;SDS011;56108;48.730;9.304;2022-10-16T02:50:25;3.60;;;3.30;;
966;SDS011;56108;48.730;9.304;2022-10-16T02:52:34;3.13;;;2.75;;
966;SDS011;56108;48.730;9.304;2022-10-16T02:54:42;3.90;;;3.53;;
966;SDS011;56108;48.730;9.304;2022-10-16T02:56:50;3.30;;;3.08;;
966;SDS011;56108;48.730;9.304;2022-10-16T02:58:59;4.75;;;3.45;;
966;SDS011;56108;48.730;9.304;2022-10-16T03:01:10;6.65;;;3.17;;
966;SDS011;56108;48.730;9.304;2022-10-16T03:03:21;6.40;;;3.55;;
966;SDS011;56108;48.730;9.304;2022-10-16T03:05:30;3.03;;;2.83;;
966;SDS011;56108;48.730;9.304;2022-10-16T03:07:39;6.43;;;3.22;;
966;SDS011;56108;48.730;9.304;2022-10-16T03:09:47;2.95;;;2.75;;
966;SDS011;56108;48.730;9.304;2022-10-16T03:11:56;2.90;;;2.70;;
966;SDS011;56108;48.730;9.304;2022-10-16T03:14:04;3.53;;;3.00;;
966;SDS011;56108;48.730;9.304;2022-10-16T03:16:15;5.25;;;3.17;;
966;SDS011;56108;48.730;9.304;2022-10-16T03:18:23;3.92;;;3.40;;
966;SDS011;56108;48.730;9.304;2022-10-16T03:20:32;3.67;;;3.13;;
966;SDS011;56108;48.730;9.304;2022-10-16T03:22:41;3.35;;;3.15;;
966;SDS011;56108;48.730;9.304;2022-10-16T03:24:51;3.40;;;3.20;;
966;SDS011;56108;48.730;9.304;2022-10-16T03:26:59;3.13;;;2.92;;
966;SDS011;56108;48.730;9.304;2022-10-16T03:29:08;4.63;;;3.00;;
966;SDS011;56108;48.730;9.304;2022-10-16T03:31:19;4.80;;;3.40;;
966;SDS011;56108;48.730;9.304;2022-10-16T03:33:27;3.47;;;3.17;;
966;SDS011;56108;48.730;9.304;2022-10-16T03:35:35;6.40;;;3.70;;
966;SDS011;56108;48.730;9.304;2022-10-16T03:37:44;3.13;;;2.92;;
966;SDS011;56108;48.730;9.304;2022-10-16T03:39:53;3.97;;;3.60;;
966;SDS011;56108;48.730;9.304;2022-10-16T03:42:01;4.15;;;3.42;;
966;SDS011;56108;48.730;9.304;2022-10-16T03:44:10;4.15;;;3.30;;
966;SDS011;56108;48.730;9.304;2022-10-16T03:46:21;5.13;;;3.72;;
966;SDS011;56108;48.730;9.304;2022-10-16T03:48:30;3.55;;;2.45;;
966;SDS011;56108;48.730;9.304;2022-10-16T03:50:38;2.60;;;2.50;;
966;SDS011;56108;48.730;9.304;2022-10-16T03:52:46;3.28;;;2.97;;
966;SDS011;56108;48.730;9.304;2022-10-16T03:54:55;3.10;;;2.80;;
966;SDS011;56108;48.730;9.304;2022-10-16T03:57:03;3.38;;;2.70;;
966;SDS011;56108;48.730;9.304;2022-10-16T03:59:12;3.20;;;2.90;;
966;SDS011;56108;48.730;9.304;2022-10-16T04:01:23;3.30;;;2.63;;
966;SDS011;56108;48.730;9.304;2022-10-16T04:03:32;3.05;;;2.75;;
966;SDS011;56108;48.730;9.304;2022-10-16T04:05:40;2.88;;;2.58;;
966;SDS011;56108;48.730;9.304;2022-10-16T04:07:48;2.67;;;2.47;;
966;SDS011;56108;48.730;9.304;2022-10-16T04:09:56;4.30;;;3.10;;
966;SDS011;56108;48.730;9.304;2022-10-16T04:12:05;2.60;;;2.50;;
966;SDS011;56108;48.730;9.304;2022-10-16T04:14:13;3.10;;;2.80;;
966;SDS011;56108;48.730;9.304;2022-10-16T04:16:24;3.60;;;3.00;;
966;SDS011;56108;48.730;9.304;2022-10-16T04:18:33;3.38;;;3.08;;
966;SDS011;56108;48.730;9.304;2022-10-16T04:20:41;5.53;;;2.80;;
966;SDS011;56108;48.730;9.304;2022-10-16T04:22:49;3.03;;;2.72;;
966;SDS011;56108;48.730;9.304;2022-10-16T04:24:57;3.10;;;2.80;;
966;SDS011;56108;48.730;9.304;2022-10-16T04:27:06;2.60;;;2.42;;
966;SDS011;56108;48.730;9.304;2022-10-16T04:29:14;3.20;;;2.63;;
966;SDS011;56108;48.730;9.304;2022-10-16T04:31:29;4.03;;;2.42;;
966;SDS011;56108;48.730;9.304;2022-10-16T04:33:37;5.50;;;2.58;;
966;SDS011;56108;48.730;9.304;2022-10-16T04:35:46;2.65;;;2.45;;
966;SDS011;56108;48.730;9.304;2022-10-16T04:37:57;2.92;;;2.65;;
966;SDS011;56108;48.730;9.304;2022-10-16T04:40:06;3.80;;;3.00;;
966;SDS011;56108;48.730;9.304;2022-10-16T04:42:15;5.18;;;2.85;;
966;SDS011;56108;48.730;9.304;2022-10-16T04:44:23;3.03;;;2.72;;
966;SDS011;56108;48.730;9.304;2022-10-16T04:46:34;3.50;;;3.20;;
966;SDS011;56108;48.730;9.304;2022-10-16T04:48:42;2.92;;;2.70;;
966;SDS011;56108;48.730;9.304;2022-10-16T04:50:51;3.00;;;2.65;;
966;SDS011;56108;48.730;9.304;2022-10-16T04:52:59;2.60;;;2.50;;
966;SDS011;56108;48.730;9.304;2022-10-16T04:55:08;2.80;;;2.65;;
966;SDS011;56108;48.730;9.304;2022-10-16T04:57:16;3.20;;;3.00;;
966;SDS011;56108;48.730;9.304;2022-10-16T04:59:24;4.45;;;3.00;;
966;SDS011;56108;48.730;9.304;2022-10-16T05:01:35;6.65;;;3.25;;
966;SDS011;56108;48.730;9.304;2022-10-16T05:03:43;3.25;;;3.00;;
966;SDS011;56108;48.730;9.304;2022-10-16T05:05:52;2.80;;;2.60;;
966;SDS011;56108;48.730;9.304;2022-10-16T05:08:01;3.42;;;2.92;;
966;SDS011;56108;48.730;9.304;2022-10-16T05:10:09;3.00;;;2.80;;
966;SDS011;56108;48.730;9.304;2022-10-16T05:12:17;5.20;;;2.95;;
966;SDS011;56108;48.730;9.304;2022-10-16T05:14:26;4.47;;;2.58;;
966;SDS011;56108;48.730;9.304;2022-10-16T05:16:37;2.80;;;2.70;;
966;SDS011;56108;48.730;9.304;2022-10-16T05:18:45;5.53;;;2.90;;
966;SDS011;56108;48.730;9.304;2022-10-16T05:20:59;4.53;;;3.00;;
966;SDS011;56108;48.730;9.304;2022-10-16T05:23:08;3.30;;;2.70;;
966;SDS011;56108;48.730;9.304;2022-10-16T05:25:36;3.28;;;2.97;;
966;SDS011;56108;48.730;9.304;2022-10-16T05:27:46;3.08;;;2.80;;
966;SDS011;56108;48.730;9.304;2022-10-16T05:29:56;6.13;;;2.90;;
966;SDS011;56108;48.730;9.304;2022-10-16T05:32:06;3.00;;;2.72;;
966;SDS011;56108;48.730;9.304;2022-10-16T05:34:15;2.92;;;2.67;;
966;SDS011;56108;48.730;9.304;2022-10-16T05:36:24;4.60;;;3.20;;
966;SDS011;56108;48.730;9.304;2022-10-16T05:38:32;6.00;;;3.45;;
966;SDS011;56108;48.730;9.304;2022-10-16T05:40:42;3.20;;;3.00;;
966;SDS011;56108;48.730;9.304;2022-10-16T05:42:54;3.08;;;2.85;;
966;SDS011;56108;48.730;9.304;2022-10-16T05:45:05;3.35;;;3.15;;
966;SDS011;56108;48.730;9.304;2022-10-16T05:47:16;3.38;;;3.03;;
966;SDS011;56108;48.730;9.304;2022-10-16T05:49:25;3.40;;;3.10;;
966;SDS011;56108;48.730;9.304;2022-10-16T05:51:33;3.95;;;3.55;;
966;SDS011;56108;48.730;9.304;2022-10-16T05:53:42;3.50;;;3.20;;
966;SDS011;56108;48.730;9.304;2022-10-16T05:55:51;4.13;;;3.33;;
966;SDS011;56108;48.730;9.304;2022-10-16T05:58:00;5.38;;;4.32;;
966;SDS011;56108;48.730;9.304;2022-10-16T06:00:09;6.82;;;4.32;;
966;SDS011;56108;48.730;9.304;2022-10-16T06:02:21;5.32;;;4.22;;
966;SDS011;56108;48.730;9.304;2022-10-16T06:04:29;3.97;;;3.67;;
966;SDS011;56108;48.730;9.304;2022-10-16T06:06:38;5.45;;;4.72;;
966;SDS011;56108;48.730;9.304;2022-10-16T06:08:47;5.35;;;4.70;;
966;SDS011;56108;48.730;9.304;2022-10-16T06:11:00;6.45;;;4.00;;
966;SDS011;56108;48.730;9.304;2022-10-16T06:13:10;3.50;;;3.30;;
966;SDS011;56108;48.730;9.304;2022-10-16T06:15:19;4.10;;;3.70;;
966;SDS011;56108;48.730;9.304;2022-10-16T06:17:30;3.72;;;3.42;;
966;SDS011;56108;48.730;9.304;2022-10-16T06:19:38;3.25;;;3.00;;
966;SDS011;56108;48.730;9.304;2022-10-16T06:21:46;3.38;;;3.17;;
966;SDS011;56108;48.730;9.304;2022-10-16T06:23:55;4.07;;;3.40;;
966;SDS011;56108;48.730;9.304;2022-10-16T06:26:05;3.50;;;3.00;;
966;SDS011;56108;48.730;9.304;2022-10-16T06:28:14;2.95;;;2.75;;
966;SDS011;56108;48.730;9.304;2022-10-16T06:30:23;4.32;;;3.20;;
966;SDS011;56108;48.730;9.304;2022-10-16T06:32:34;3.30;;;3.10;;
966;SDS011;56108;48.730;9.304;2022-10-16T06:34:42;3.58;;;3.35;;
966;SDS011;56108;48.730;9.304;2022-10-16T06:36:51;5.40;;;2.80;;
966;SDS011;56108;48.730;9.304;2022-10-16T06:39:00;3.60;;;3.10;;
966;SDS011;56108;48.730;9.304;2022-10-16T06:41:09;3.67;;;3.35;;
966;SDS011;56108;48.730;9.304;2022-10-16T06:43:20;3.45;;;3.25;;
966;SDS011;56108;48.730;9.304;2022-10-16T06:45:28;3.30;;;3.10;;
966;SDS011;56108;48.730;9.304;2022-10-16T06:47:39;5.22;;;3.92;;
966;SDS011;56108;48.730;9.304;2022-10-16T06:49:48;3.58;;;3.30;;
966;SDS011;56108;48.730;9.304;2022-10-16T06:51:58;3.42;;;3.13;;
966;SDS011;56108;48.730;9.304;2022-10-16T06:54:06;3.55;;;2.85;;
966;SDS011;56108;48.730;9.304;2022-10-16T06:56:15;3.30;;;3.10;;
966;SDS011;56108;48.730;9.304;2022-10-16T06:58:25;6.88;;;3.30;;
966;SDS011;56108;48.730;9.304;2022-10-16T07:00:33;4.55;;;3.50;;
966;SDS011;56108;48.730;9.304;2022-10-16T07:02:44;3.42;;;3.15;;
966;SDS011;56108;48.730;9.304;2022-10-16T07:04:53;3.90;;;3.60;;
966;SDS011;56108;48.730;9.304;2022-10-16T07:07:02;3.92;;;3.63;;
966;SDS011;56108;48.730;9.304;2022-10-16T07:09:13;4.60;;;3.00;;
966;SDS011;56108;48.730;9.304;2022-10-16T07:11:22;6.47;;;3.90;;
966;SDS011;56108;48.730;9.304;2022-10-16T07:13:32;3.53;;;2.95;;
966;SDS011;56108;48.730;9.304;2022-10-16T07:15:41;3.30;;;3.10;;
966;SDS011;56108;48.730;9.304;2022-10-16T07:17:52;5.28;;;4.10;;
966;SDS011;56108;48.730;9.304;2022-10-16T07:20:00;4.70;;;4.30;;
966;SDS011;56108;48.730;9.304;2022-10-16T07:22:08;4.18;;;3.88;;
966;SDS011;56108;48.730;9.304;2022-10-16T07:24:17;5.30;;;3.92;;
966;SDS011;56108;48.730;9.304;2022-10-16T07:26:27;4.93;;;4.53;;
966;SDS011;56108;48.730;9.304;2022-10-16T07:28:37;5.95;;;4.90;;
966;SDS011;56108;48.730;9.304;2022-10-16T07:30:46;6.82;;;4.30;;
966;SDS011;56108;48.730;9.304;2022-10-16T07:32:57;4.65;;;4.35;;
966;SDS011;56108;48.730;9.304;2022-10-16T07:35:06;4.10;;;3.80;;
966;SDS011;56108;48.730;9.304;2022-10-16T07:37:18;4.40;;;4.10;;
966;SDS011;56108;48.730;9.304;2022-10-16T07:39:27;4.90;;;3.80;;
966;SDS011;56108;48.730;9.304;2022-10-16T07:41:39;5.47;;;3.70;;
966;SDS011;56108;48.730;9.304;2022-10-16T07:43:47;4.82;;;3.33;;
966;SDS011;56108;48.730;9.304;2022-10-16T07:45:57;3.47;;;3.17;;
966;SDS011;56108;48.730;9.304;2022-10-16T07:48:12;3.70;;;3.40;;
966;SDS011;56108;48.730;9.304;2022-10-16T07:50:20;3.78;;;3.40;;
966;SDS011;56108;48.730;9.304;2022-10-16T07:52:29;3.28;;;3.00;;
966;SDS011;56108;48.730;9.304;2022-10-16T07:54:37;5.22;;;3.10;;
966;SDS011;56108;48.730;9.304;2022-10-16T07:56:45;3.65;;;3.35;;
966;SDS011;56108;48.730;9.304;2022-10-16T07:58:53;3.75;;;3.45;;
966;SDS011;56108;48.730;9.304;2022-10-16T08:01:02;3.25;;;2.92;;
966;SDS011;56108;48.730;9.304;2022-10-16T08:03:16;3.97;;;3.50;;
966;SDS011;56108;48.730;9.304;2022-10-16T08:05:24;3.40;;;3.10;;
966;SDS011;56108;48.730;9.304;2022-10-16T08:07:34;3.65;;;3.40;;
966;SDS011;56108;48.730;9.304;2022-10-16T08:09:42;3.67;;;3.30;;
966;SDS011;56108;48.730;9.304;2022-10-16T08:11:50;5.80;;;3.75;;
966;SDS011;56108;48.730;9.304;2022-10-16T08:14:05;4.88;;;3.35;;
966;SDS011;56108;48.730;9.304;2022-10-16T08:16:13;4.43;;;3.45;;
966;SDS011;56108;48.730;9.304;2022-10-16T08:18:27;3.45;;;3.15;;
966;SDS011;56108;48.730;9.304;2022-10-16T08:20:36;3.17;;;2.97;;
966;SDS011;56108;48.730;9.304;2022-10-16T08:22:44;3.35;;;3.15;;
966;SDS011;56108;48.730;9.304;2022-10-16T08:24:54;5.18;;;2.95;;
966;SDS011;56108;48.730;9.304;2022-10-16T08:27:03;4.97;;;3.20;;
966;SDS011;56108;48.730;9.304;2022-10-16T08:29:12;6.03;;;3.95;;
966;SDS011;56108;48.730;9.304;2022-10-16T08:31:21;4.75;;;3.70;;
966;SDS011;56108;48.730;9.304;2022-10-16T08:33:34;4.28;;;3.97;;
966;SDS011;56108;48.730;9.304;2022-10-16T08:35:49;4.32;;;3.95;;
966;SDS011;56108;48.730;9.304;2022-10-16T08:37:58;4.57;;;4.22;;
966;SDS011;56108;48.730;9.304;2022-10-16T08:40:12;3.65;;;3.20;;
966;SDS011;56108;48.730;9.304;2022-10-16T08:42:32;4.63;;;3.50;;
966;SDS011;56108;48.730;9.304;2022-10-16T08:44:59;3.72;;;3.30;;
966;SDS011;56108;48.730;9.304;2022-10-16T08:47:25;3.20;;;2.95;;
966;SDS011;56108;48.730;9.304;2022-10-16T08:49:43;3.72;;;3.08;;
966;SDS011;56108;48.730;9.304;2022-10-16T08:52:02;3.60;;;3.22;;
966;SDS011;56108;48.730;9.304;2022-10-16T08:54:15;3.58;;;3.28;;
966;SDS011;56108;48.730;9.304;2022-10-16T08:56:30;3.42;;;3.05;;
966;SDS011;56108;48.730;9.304;2022-10-16T08:58:39;3.30;;;3.00;;
966;SDS011;56108;48.730;9.304;2022-10-16T09:00:48;6.82;;;3.40;;
966;SDS011;56108;48.730;9.304;2022-10-16T09:03:04;5.30;;;2.92;;
966;SDS011;56108;48.730;9.304;2022-10-16T09:05:27;4.30;;;3.10;;
966;SDS011;56108;48.730;9.304;2022-10-16T09:07:45;3.33;;;2.90;;
966;SDS011;56108;48.730;9.304;2022-10-16T09:10:28;3.63;;;3.33;;
966;SDS011;56108;48.730;9.304;2022-10-16T09:12:47;4.82;;;3.28;;
966;SDS011;56108;48.730;9.304;2022-10-16T09:15:06;9.60;;;2.72;;
966;SDS011;56108;48.730;9.304;2022-10-16T09:17:30;3.05;;;2.85;;
966;SDS011;56108;48.730;9.304;2022-10-16T09:19:49;9.30;;;2.72;;
966;SDS011;56108;48.730;9.304;2022-10-16T09:22:04;2.80;;;2.60;;
966;SDS011;56108;48.730;9.304;2022-10-16T09:24:23;7.85;;;3.30;;
966;SDS011;56108;48.730;9.304;2022-10-16T09:26:33;3.00;;;2.78;;
966;SDS011;56108;48.730;9.304;2022-10-16T09:28:42;4.00;;;3.00;;
966;SDS011;56108;48.730;9.304;2022-10-16T09:30:50;4.97;;;2.75;;
966;SDS011;56108;48.730;9.304;2022-10-16T09:32:59;3.03;;;2.83;;
966;SDS011;56108;48.730;9.304;2022-10-16T09:35:11;2.83;;;2.63;;
966;SDS011;56108;48.730;9.304;2022-10-16T09:37:24;2.17;;;2.08;;
966;SDS011;56108;48.730;9.304;2022-10-16T09:39:43;3.10;;;2.80;;
966;SDS011;56108;48.730;9.304;2022-10-16T09:41:53;2.30;;;2.20;;
966;SDS011;56108;48.730;9.304;2022-10-16T09:44:04;5.72;;;2.90;;
966;SDS011;56108;48.730;9.304;2022-10-16T09:46:21;4.17;;;3.13;;
966;SDS011;56108;48.730;9.304;2022-10-16T09:48:34;3.13;;;2.93;;
966;SDS011;56108;48.730;9.304;2022-10-16T09:50:54;2.97;;;2.77;;
966;SDS011;56108;48.730;9.304;2022-10-16T09:53:08;3.17;;;2.70;;
966;SDS011;56108;48.730;9.304;2022-10-16T09:55:19;3.30;;;3.00;;
966;SDS011;56108;48.730;9.304;2022-10-16T09:57:27;3.83;;;2.80;;
966;SDS011;56108;48.730;9.304;2022-10-16T09:59:44;2.47;;;2.27;;
966;SDS011;56108;48.730;9.304;2022-10-16T10:01:54;3.10;;;2.30;;
966;SDS011;56108;48.730;9.304;2022-10-16T10:04:05;3.20;;;2.73;;
966;SDS011;56108;48.730;9.304;2022-10-16T10:06:16;2.63;;;2.43;;
966;SDS011;56108;48.730;9.304;2022-10-16T10:08:29;2.30;;;2.20;;
966;SDS011;56108;48.730;9.304;2022-10-16T10:10:41;2.67;;;2.50;;
966;SDS011;56108;48.730;9.304;2022-10-16T10:12:50;2.27;;;2.17;;
966;SDS011;56108;48.730;9.304;2022-10-16T10:15:03;3.10;;;1.97;;
966;SDS011;56108;48.730;9.304;2022-10-16T10:17:15;3.67;;;2.07;;
966;SDS011;56108;48.730;9.304;2022-10-16T10:19:26;4.00;;;2.53;;
966;SDS011;56108;48.730;9.304;2022-10-16T10:21:37;2.70;;;1.97;;
966;SDS011;56108;48.730;9.304;2022-10-16T10:23:57;2.20;;;1.90;;
966;SDS011;56108;48.730;9.304;2022-10-16T10:26:06;2.50;;;2.23;;
966;SDS011;56108;48.730;9.304;2022-10-16T10:28:24;4.53;;;2.43;;
966;SDS011;56108;48.730;9.304;2022-10-16T10:30:49;2.70;;;2.40;;
966;SDS011;56108;48.730;9.304;2022-10-16T10:35:34;2.33;;;2.00;;
966;SDS011;56108;48.730;9.304;2022-10-16T10:37:55;2.00;;;1.90;;
966;SDS011;56108;48.730;9.304;2022-10-16T10:40:21;2.10;;;2.00;;
966;SDS011;56108;48.730;9.304;2022-10-16T10:42:39;2.00;;;1.90;;
966;SDS011;56108;48.730;9.304;2022-10-16T10:45:11;2.47;;;1.40;;
966;SDS011;56108;48.730;9.304;2022-10-16T10:47:36;2.23;;;2.00;;
966;SDS011;56108;48.730;9.304;2022-10-16T10:49:55;3.10;;;2.10;;
966;SDS011;56108;48.730;9.304;2022-10-16T10:52:13;2.50;;;2.40;;
966;SDS011;56108;48.730;9.304;2022-10-16T10:54:40;2.80;;;2.47;;
966;SDS011;56108;48.730;9.304;2022-10-16T10:57:01;2.67;;;2.20;;
966;SDS011;56108;48.730;9.304;2022-10-16T10:59:28;3.50;;;2.67;;
966;SDS011;56108;48.730;9.304;2022-10-16T11:01:47;3.53;;;3.30;;
966;SDS011;56108;48.730;9.304;2022-10-16T11:04:09;5.07;;;2.70;;
966;SDS011;56108;48.730;9.304;2022-10-16T11:06:39;5.20;;;2.60;;
966;SDS011;56108;48.730;9.304;2022-10-16T11:08:51;3.90;;;2.47;;
966;SDS011;56108;48.730;9.304;2022-10-16T11:11:06;2.80;;;2.60;;
966;SDS011;56108;48.730;9.304;2022-10-16T11:15:47;2.70;;;2.47;;
966;SDS011;56108;48.730;9.304;2022-10-16T11:18:00;3.33;;;2.37;;
966;SDS011;56108;48.730;9.304;2022-10-16T11:20:14;4.90;;;2.80;;
966;SDS011;56108;48.730;9.304;2022-10-16T11:22:27;2.53;;;2.33;;
966;SDS011;56108;48.730;9.304;2022-10-16T11:24:40;3.35;;;2.78;;
966;SDS011;56108;48.730;9.304;2022-10-16T11:26:54;2.35;;;2.15;;
966;SDS011;56108;48.730;9.304;2022-10-16T11:29:07;2.65;;;2.40;;
966;SDS011;56108;48.730;9.304;2022-10-16T11:31:23;2.50;;;2.20;;
966;SDS011;56108;48.730;9.304;2022-10-16T11:33:38;2.63;;;1.90;;
966;SDS011;56108;48.730;9.304;2022-10-16T11:35:51;2.70;;;2.50;;
966;SDS011;56108;48.730;9.304;2022-10-16T11:38:04;2.90;;;2.10;;
966;SDS011;56108;48.730;9.304;2022-10-16T11:40:22;2.60;;;2.40;;
966;SDS011;56108;48.730;9.304;2022-10-16T11:42:37;2.83;;;2.22;;
966;SDS011;56108;48.730;9.304;2022-10-16T11:44:55;4.03;;;2.00;;
966;SDS011;56108;48.730;9.304;2022-10-16T11:47:09;3.03;;;2.40;;
966;SDS011;56108;48.730;9.304;2022-10-16T11:49:47;2.70;;;2.50;;
966;SDS011;56108;48.730;9.304;2022-10-16T11:52:02;2.43;;;2.33;;
966;SDS011;56108;48.730;9.304;2022-10-16T11:54:20;2.40;;;2.30;;
966;SDS011;56108;48.730;9.304;2022-10-16T11:56:36;2.57;;;2.37;;
966;SDS011;56108;48.730;9.304;2022-10-16T11:58:52;2.40;;;2.20;;
966;SDS011;56108;48.730;9.304;2022-10-16T12:01:10;5.23;;;2.17;;
966;SDS011;56108;48.730;9.304;2022-10-16T12:03:30;2.20;;;2.10;;
966;SDS011;56108;48.730;9.304;2022-10-16T12:05:57;2.40;;;2.20;;
966;SDS011;56108;48.730;9.304;2022-10-16T12:08:14;6.03;;;2.50;;
966;SDS011;56108;48.730;9.304;2022-10-16T12:10:25;2.10;;;1.80;;
966;SDS011;56108;48.730;9.304;2022-10-16T12:12:38;1.77;;;1.50;;
966;SDS011;56108;48.730;9.304;2022-10-16T12:14:59;2.60;;;2.33;;
966;SDS011;56108;48.730;9.304;2022-10-16T12:17:34;1.87;;;1.77;;
966;SDS011;56108;48.730;9.304;2022-10-16T12:19:43;2.20;;;2.10;;
966;SDS011;56108;48.730;9.304;2022-10-16T12:21:52;2.00;;;1.90;;
966;SDS011;56108;48.730;9.304;2022-10-16T12:24:04;2.30;;;2.20;;
966;SDS011;56108;48.730;9.304;2022-10-16T12:26:13;2.40;;;2.30;;
966;SDS011;56108;48.730;9.304;2022-10-16T12:28:31;2.00;;;1.90;;
966;SDS011;56108;48.730;9.304;2022-10-16T12:30:41;2.07;;;1.87;;
966;SDS011;56108;48.730;9.304;2022-10-16T12:33:02;2.90;;;2.30;;
966;SDS011;56108;48.730;9.304;2022-10-16T12:35:17;4.57;;;2.10;;
966;SDS011;56108;48.730;9.304;2022-10-16T12:37:28;2.23;;;2.03;;
966;SDS011;56108;48.730;9.304;2022-10-16T12:39:40;1.90;;;1.80;;
966;SDS011;56108;48.730;9.304;2022-10-16T12:42:00;2.20;;;2.00;;
966;SDS011;56108;48.730;9.304;2022-10-16T12:44:20;2.10;;;1.90;;
966;SDS011;56108;48.730;9.304;2022-10-16T12:46:35;2.07;;;1.97;;
966;SDS011;56108;48.730;9.304;2022-10-16T12:48:49;2.40;;;2.30;;
966;SDS011;56108;48.730;9.304;2022-10-16T12:51:19;1.90;;;1.83;;
966;SDS011;56108;48.730;9.304;2022-10-16T12:53:31;2.70;;;1.93;;
966;SDS011;56108;48.730;9.304;2022-10-16T12:55:42;2.90;;;1.90;;
966;SDS011;56108;48.730;9.304;2022-10-16T12:58:03;2.40;;;2.20;;
966;SDS011;56108;48.730;9.304;2022-10-16T13:00:21;2.70;;;2.00;;
966;SDS011;56108;48.730;9.304;2022-10-16T13:02:39;2.63;;;2.10;;
966;SDS011;56108;48.730;9.304;2022-10-16T13:07:39;3.33;;;2.20;;
966;SDS011;56108;48.730;9.304;2022-10-16T13:10:03;3.63;;;2.40;;
966;SDS011;56108;48.730;9.304;2022-10-16T13:15:08;5.70;;;2.60;;
966;SDS011;56108;48.730;9.304;2022-10-16T13:17:42;2.60;;;2.40;;
966;SDS011;56108;48.730;9.304;2022-10-16T13:20:00;2.50;;;2.20;;
966;SDS011;56108;48.730;9.304;2022-10-16T13:22:23;7.33;;;2.47;;
966;SDS011;56108;48.730;9.304;2022-10-16T13:24:42;2.63;;;2.43;;
966;SDS011;56108;48.730;9.304;2022-10-16T13:27:00;2.30;;;2.20;;
966;SDS011;56108;48.730;9.304;2022-10-16T13:29:18;2.47;;;2.27;;
966;SDS011;56108;48.730;9.304;2022-10-16T13:31:27;2.43;;;2.23;;
966;SDS011;56108;48.730;9.304;2022-10-16T13:33:39;3.03;;;2.20;;
966;SDS011;56108;48.730;9.304;2022-10-16T13:35:49;2.60;;;2.50;;
966;SDS011;56108;48.730;9.304;2022-10-16T13:38:09;2.10;;;1.90;;
966;SDS011;56108;48.730;9.304;2022-10-16T13:40:22;4.50;;;2.47;;
966;SDS011;56108;48.730;9.304;2022-10-16T13:42:31;2.10;;;2.00;;
966;SDS011;56108;48.730;9.304;2022-10-16T13:44:41;3.17;;;2.10;;
966;SDS011;56108;48.730;9.304;2022-10-16T13:46:57;5.10;;;2.40;;
966;SDS011;56108;48.730;9.304;2022-10-16T13:49:11;3.10;;;2.03;;
966;SDS011;56108;48.730;9.304;2022-10-16T13:51:21;2.13;;;1.97;;
966;SDS011;56108;48.730;9.304;2022-10-16T13:53:33;2.23;;;2.13;;